createdAt,value
2023-07-15T00:00:57.623Z,3.47
2023-07-15T00:02:00.573Z,3.85
2023-07-15T00:03:04.388Z,3.88
2023-07-15T00:04:13.027Z,3.75
2023-07-15T00:05:28.947Z,3.85
2023-07-15T00:06:31.561Z,3.75
2023-07-15T00:07:33.864Z,3.55
2023-07-15T00:08:36.330Z,3.97
2023-07-15T00:09:39.622Z,3.65
2023-07-15T00:10:44.950Z,3.25
2023-07-15T00:11:47.530Z,4.30
2023-07-15T00:12:50.175Z,3.33
2023-07-15T00:13:52.463Z,3.33
2023-07-15T00:14:54.745Z,4.05
2023-07-15T00:15:58.623Z,3.60
2023-07-15T00:17:01.315Z,3.53
2023-07-15T00:18:04.157Z,3.45
2023-07-15T00:19:07.238Z,3.45
2023-07-15T00:20:15.581Z,3.35
2023-07-15T00:21:22.009Z,4.20
2023-07-15T00:22:24.339Z,3.42
2023-07-15T00:23:27.740Z,3.90
2023-07-15T00:24:30.132Z,3.80
2023-07-15T00:25:33.286Z,4.25
2023-07-15T00:26:35.780Z,4.30
2023-07-15T00:27:38.645Z,3.95
2023-07-15T00:28:40.900Z,4.50
2023-07-15T00:29:43.133Z,4.20
2023-07-15T00:30:46.049Z,4.53
2023-07-15T00:31:48.436Z,3.80
2023-07-15T00:32:52.463Z,4.78
2023-07-15T00:33:56.800Z,4.25
2023-07-15T00:34:59.269Z,4.60
2023-07-15T00:36:01.559Z,4.70
2023-07-15T00:37:03.988Z,4.18
2023-07-15T00:38:06.493Z,5.03
2023-07-15T00:39:10.565Z,4.82
2023-07-15T00:40:13.861Z,4.32
2023-07-15T00:41:22.063Z,4.50
2023-07-15T00:42:42.225Z,4.50
2023-07-15T00:43:59.446Z,4.78
2023-07-15T00:45:01.835Z,4.32
2023-07-15T00:46:19.378Z,4.45
2023-07-15T00:47:39.975Z,5.22
2023-07-15T00:48:59.681Z,4.57
2023-07-15T00:50:02.420Z,5.00
2023-07-15T00:51:05.060Z,4.53
2023-07-15T00:52:15.158Z,5.32
2023-07-15T00:53:17.487Z,5.30
2023-07-15T00:54:21.596Z,5.03
2023-07-15T00:55:23.997Z,5.03
2023-07-15T00:56:27.642Z,4.50
2023-07-15T00:57:30.268Z,5.28
2023-07-15T00:58:32.592Z,4.80
2023-07-15T00:59:36.105Z,4.38
2023-07-15T01:00:39.085Z,4.97
2023-07-15T01:01:41.514Z,5.22
2023-07-15T01:02:44.016Z,5.45
2023-07-15T01:03:46.530Z,4.95
2023-07-15T01:04:49.087Z,4.78
2023-07-15T01:05:52.682Z,4.60
2023-07-15T01:06:55.895Z,4.75
2023-07-15T01:07:58.162Z,4.82
2023-07-15T01:09:00.893Z,5.00
2023-07-15T01:10:03.498Z,4.72
2023-07-15T01:11:07.913Z,4.53
2023-07-15T01:12:10.998Z,4.85
2023-07-15T01:13:13.497Z,5.20
2023-07-15T01:14:16.087Z,4.68
2023-07-15T01:15:18.570Z,4.60
2023-07-15T01:16:20.960Z,4.68
2023-07-15T01:17:23.454Z,4.97
2023-07-15T01:18:25.897Z,4.40
2023-07-15T01:19:28.603Z,4.55
2023-07-15T01:20:33.453Z,5.00
2023-07-15T01:21:36.104Z,4.78
2023-07-15T01:22:39.522Z,4.65
2023-07-15T01:23:41.890Z,4.65
2023-07-15T01:24:44.173Z,4.72
2023-07-15T01:25:46.526Z,4.43
2023-07-15T01:26:56.376Z,3.95
2023-07-15T01:28:01.271Z,4.50
2023-07-15T01:29:04.722Z,4.35
2023-07-15T01:30:07.599Z,4.22
2023-07-15T01:31:10.816Z,4.57
2023-07-15T01:32:13.683Z,4.82
2023-07-15T01:33:20.245Z,5.03
2023-07-15T01:34:22.893Z,4.22
2023-07-15T01:35:25.386Z,3.65
2023-07-15T01:36:28.182Z,4.13
2023-07-15T01:37:30.622Z,4.53
2023-07-15T01:38:33.477Z,3.95
2023-07-15T01:39:36.364Z,4.80
2023-07-15T01:40:39.531Z,3.97
2023-07-15T01:41:41.823Z,4.65
2023-07-15T01:42:44.147Z,4.13
2023-07-15T01:43:47.413Z,4.53
2023-07-15T01:44:49.780Z,4.38
2023-07-15T01:45:54.862Z,4.10
2023-07-15T01:46:57.231Z,4.35
2023-07-15T01:47:59.568Z,4.70
2023-07-15T01:49:05.192Z,4.22
2023-07-15T01:50:09.479Z,4.25
2023-07-15T01:51:11.862Z,4.35
2023-07-15T01:52:16.308Z,4.45
2023-07-15T01:53:19.484Z,4.20
2023-07-15T01:54:21.786Z,4.35
2023-07-15T01:55:26.821Z,4.82
2023-07-15T01:56:29.455Z,4.22
2023-07-15T01:57:32.203Z,4.40
2023-07-15T01:58:34.422Z,4.32
2023-07-15T01:59:36.796Z,4.15
2023-07-15T02:00:39.150Z,3.92
2023-07-15T02:01:42.531Z,4.45
2023-07-15T02:02:45.300Z,4.25
2023-07-15T02:03:48.128Z,4.22
2023-07-15T02:04:50.854Z,3.85
2023-07-15T02:05:53.382Z,4.25
2023-07-15T02:06:55.684Z,4.28
2023-07-15T02:07:58.015Z,4.10
2023-07-15T02:09:00.233Z,4.03
2023-07-15T02:10:02.656Z,4.40
2023-07-15T02:11:05.196Z,4.63
2023-07-15T02:12:07.862Z,4.45
2023-07-15T02:13:12.403Z,4.22
2023-07-15T02:14:14.897Z,4.32
2023-07-15T02:15:17.216Z,4.75
2023-07-15T02:16:20.543Z,4.28
2023-07-15T02:17:24.373Z,4.25
2023-07-15T02:18:26.943Z,4.00
2023-07-15T02:19:29.353Z,4.88
2023-07-15T02:20:31.770Z,4.70
2023-07-15T02:21:34.099Z,4.82
2023-07-15T02:22:36.668Z,4.25
2023-07-15T02:23:38.968Z,4.18
2023-07-15T02:24:41.317Z,4.75
2023-07-15T02:25:43.800Z,4.72
2023-07-15T02:26:46.281Z,5.22
2023-07-15T02:27:49.469Z,4.88
2023-07-15T02:28:51.776Z,4.93
2023-07-15T02:29:54.365Z,5.35
2023-07-15T02:30:56.971Z,4.57
2023-07-15T02:32:00.068Z,4.72
2023-07-15T02:33:02.538Z,4.95
2023-07-15T02:34:05.847Z,5.32
2023-07-15T02:35:10.045Z,4.78
2023-07-15T02:36:13.381Z,4.55
2023-07-15T02:37:15.994Z,5.75
2023-07-15T02:38:18.351Z,5.40
2023-07-15T02:39:21.313Z,4.55
2023-07-15T02:40:23.674Z,4.82
2023-07-15T02:41:25.929Z,4.80
2023-07-15T02:42:28.406Z,4.43
2023-07-15T02:43:30.675Z,4.18
2023-07-15T02:44:32.954Z,4.53
2023-07-15T02:45:35.228Z,5.03
2023-07-15T02:46:37.730Z,4.80
2023-07-15T02:47:41.091Z,4.78
2023-07-15T02:48:43.730Z,4.97
2023-07-15T02:49:47.845Z,5.20
2023-07-15T02:50:54.040Z,4.97
2023-07-15T02:51:56.595Z,4.88
2023-07-15T02:52:59.066Z,4.93
2023-07-15T02:54:02.627Z,4.57
2023-07-15T02:55:08.163Z,4.78
2023-07-15T02:56:10.614Z,4.65
2023-07-15T02:57:13.469Z,4.60
2023-07-15T02:58:16.014Z,4.97
2023-07-15T02:59:18.333Z,4.45
2023-07-15T03:00:20.691Z,5.00
2023-07-15T03:01:23.102Z,4.80
2023-07-15T03:02:25.953Z,4.68
2023-07-15T03:03:28.437Z,4.88
2023-07-15T03:04:30.755Z,4.85
2023-07-15T03:05:33.730Z,5.22
2023-07-15T03:06:36.258Z,5.15
2023-07-15T03:07:38.490Z,4.82
2023-07-15T03:08:41.006Z,4.63
2023-07-15T03:09:43.771Z,4.78
2023-07-15T03:10:46.999Z,4.20
2023-07-15T03:11:49.455Z,4.22
2023-07-15T03:12:52.222Z,4.63
2023-07-15T03:13:55.452Z,5.40
2023-07-15T03:14:57.832Z,4.78
2023-07-15T03:16:00.103Z,5.07
2023-07-15T03:17:03.282Z,4.32
2023-07-15T03:18:05.610Z,4.60
2023-07-15T03:19:07.862Z,4.60
2023-07-15T03:20:22.284Z,4.18
2023-07-15T03:21:24.653Z,4.05
2023-07-15T03:22:28.100Z,4.72
2023-07-15T03:23:30.481Z,4.85
2023-07-15T03:24:33.383Z,5.38
2023-07-15T03:25:36.261Z,4.47
2023-07-15T03:26:39.018Z,5.05
2023-07-15T03:27:41.845Z,4.20
2023-07-15T03:28:44.256Z,4.75
2023-07-15T03:29:50.546Z,4.90
2023-07-15T03:30:53.450Z,4.47
2023-07-15T03:31:55.906Z,4.25
2023-07-15T03:32:59.083Z,5.28
2023-07-15T03:34:01.877Z,4.43
2023-07-15T03:35:11.687Z,4.28
2023-07-15T03:36:14.531Z,5.03
2023-07-15T03:37:17.377Z,4.28
2023-07-15T03:38:19.623Z,4.47
2023-07-15T03:39:22.982Z,4.70
2023-07-15T03:40:25.717Z,4.40
2023-07-15T03:41:28.882Z,5.00
2023-07-15T03:42:31.294Z,4.72
2023-07-15T03:43:33.561Z,4.80
2023-07-15T03:44:36.698Z,4.60
2023-07-15T03:45:39.142Z,4.70
2023-07-15T03:46:41.453Z,4.43
2023-07-15T03:47:43.906Z,4.28
2023-07-15T03:48:46.299Z,4.70
2023-07-15T03:49:48.958Z,4.13
2023-07-15T03:50:51.358Z,4.65
2023-07-15T03:51:53.677Z,4.55
2023-07-15T03:52:56.036Z,5.00
2023-07-15T03:53:58.373Z,5.13
2023-07-15T03:55:00.870Z,4.80
2023-07-15T03:56:04.180Z,4.28
2023-07-15T03:57:06.661Z,4.22
2023-07-15T03:58:10.195Z,4.07
2023-07-15T03:59:12.428Z,3.90
2023-07-15T04:00:19.078Z,4.28
2023-07-15T04:01:21.680Z,3.83
2023-07-15T04:02:24.101Z,4.55
2023-07-15T04:03:27.127Z,4.30
2023-07-15T04:04:29.827Z,5.10
2023-07-15T04:05:32.052Z,4.40
2023-07-15T04:06:34.457Z,4.25
2023-07-15T04:07:36.757Z,4.35
2023-07-15T04:08:40.385Z,4.75
2023-07-15T04:09:42.640Z,4.63
2023-07-15T04:10:48.324Z,4.40
2023-07-15T04:11:52.113Z,4.30
2023-07-15T04:12:54.403Z,5.40
2023-07-15T04:13:56.894Z,5.45
2023-07-15T04:14:59.266Z,4.78
2023-07-15T04:16:01.521Z,4.85
2023-07-15T04:17:04.865Z,4.80
2023-07-15T04:18:07.365Z,4.55
2023-07-15T04:19:09.803Z,4.55
2023-07-15T04:20:18.512Z,4.80
2023-07-15T04:21:20.966Z,5.00
2023-07-15T04:22:23.343Z,5.22
2023-07-15T04:23:25.694Z,5.00
2023-07-15T04:24:29.039Z,4.40
2023-07-15T04:25:31.342Z,5.47
2023-07-15T04:26:33.624Z,5.60
2023-07-15T04:27:35.943Z,4.25
2023-07-15T04:28:38.702Z,5.43
2023-07-15T04:29:41.031Z,5.15
2023-07-15T04:30:43.413Z,5.60
2023-07-15T04:31:45.877Z,5.20
2023-07-15T04:32:49.641Z,6.43
2023-07-15T04:33:52.572Z,5.07
2023-07-15T04:34:55.008Z,5.18
2023-07-15T04:35:57.956Z,5.93
2023-07-15T04:37:00.223Z,5.55
2023-07-15T04:38:02.491Z,5.68
2023-07-15T04:39:05.419Z,5.70
2023-07-15T04:40:08.619Z,5.78
2023-07-15T04:41:10.989Z,6.05
2023-07-15T04:42:13.240Z,5.63
2023-07-15T04:43:15.527Z,5.68
2023-07-15T04:44:17.901Z,5.80
2023-07-15T04:45:20.115Z,5.88
2023-07-15T04:46:22.719Z,5.70
2023-07-15T04:47:25.169Z,5.78
2023-07-15T04:48:27.842Z,6.90
2023-07-15T04:49:30.203Z,6.43
2023-07-15T04:50:32.552Z,5.28
2023-07-15T04:51:34.923Z,5.07
2023-07-15T04:52:37.113Z,5.65
2023-07-15T04:53:44.451Z,5.93
2023-07-15T04:54:47.010Z,5.70
2023-07-15T04:55:50.036Z,5.40
2023-07-15T04:56:52.609Z,6.32
2023-07-15T04:57:55.214Z,4.85
2023-07-15T04:58:57.568Z,5.80
2023-07-15T05:00:01.113Z,5.47
2023-07-15T05:01:05.323Z,6.13
2023-07-15T05:02:08.520Z,5.85
2023-07-15T05:03:10.954Z,5.22
2023-07-15T05:04:13.756Z,5.30
2023-07-15T05:05:16.252Z,5.35
2023-07-15T05:06:22.644Z,5.57
2023-07-15T05:07:25.010Z,6.28
2023-07-15T05:08:29.118Z,5.40
2023-07-15T05:09:33.050Z,5.57
2023-07-15T05:10:35.506Z,5.53
2023-07-15T05:11:37.864Z,5.40
2023-07-15T05:12:41.086Z,5.45
2023-07-15T05:13:43.514Z,5.63
2023-07-15T05:14:46.107Z,5.50
2023-07-15T05:15:48.489Z,5.60
2023-07-15T05:16:50.983Z,5.38
2023-07-15T05:17:53.476Z,5.50
2023-07-15T05:18:55.982Z,5.95
2023-07-15T05:19:58.487Z,5.93
2023-07-15T05:21:01.357Z,5.97
2023-07-15T05:22:04.118Z,5.22
2023-07-15T05:23:06.741Z,5.63
2023-07-15T05:24:09.056Z,5.40
2023-07-15T05:25:14.863Z,6.05
2023-07-15T05:26:17.585Z,5.30
2023-07-15T05:27:19.930Z,5.22
2023-07-15T05:28:22.462Z,6.40
2023-07-15T05:29:24.854Z,5.90
2023-07-15T05:30:29.744Z,5.13
2023-07-15T05:31:33.589Z,5.25
2023-07-15T05:32:38.434Z,5.35
2023-07-15T05:33:45.691Z,5.32
2023-07-15T05:34:47.928Z,5.40
2023-07-15T05:35:50.182Z,5.05
2023-07-15T05:36:52.587Z,5.10
2023-07-15T05:37:55.158Z,5.18
2023-07-15T05:38:57.859Z,4.80
2023-07-15T05:40:00.245Z,5.38
2023-07-15T05:41:02.690Z,4.65
2023-07-15T05:42:05.287Z,4.78
2023-07-15T05:43:07.532Z,4.70
2023-07-15T05:44:10.914Z,4.80
2023-07-15T05:45:13.965Z,4.60
2023-07-15T05:46:16.455Z,4.63
2023-07-15T05:47:20.297Z,4.90
2023-07-15T05:48:23.397Z,4.70
2023-07-15T05:49:25.723Z,4.20
2023-07-15T05:50:31.238Z,4.30
2023-07-15T05:51:34.494Z,4.80
2023-07-15T05:52:36.968Z,4.22
2023-07-15T05:53:39.749Z,4.38
2023-07-15T05:54:42.139Z,4.82
2023-07-15T05:55:44.454Z,4.30
2023-07-15T05:56:46.915Z,4.22
2023-07-15T05:57:49.258Z,4.30
2023-07-15T05:58:52.600Z,4.40
2023-07-15T05:59:55.172Z,4.20
2023-07-15T06:00:57.587Z,4.30
2023-07-15T06:01:59.984Z,4.45
2023-07-15T06:03:02.518Z,4.10
2023-07-15T06:04:07.942Z,4.22
2023-07-15T06:05:11.318Z,3.97
2023-07-15T06:06:14.506Z,3.83
2023-07-15T06:07:16.764Z,3.75
2023-07-15T06:08:19.228Z,3.60
2023-07-15T06:09:21.435Z,4.13
2023-07-15T06:10:23.968Z,4.25
2023-07-15T06:11:26.717Z,4.25
2023-07-15T06:12:29.119Z,3.70
2023-07-15T06:13:31.440Z,3.92
2023-07-15T06:14:33.622Z,3.97
2023-07-15T06:15:37.872Z,3.70
2023-07-15T06:16:40.410Z,4.10
2023-07-15T06:17:42.761Z,4.45
2023-07-15T06:18:45.107Z,3.58
2023-07-15T06:19:47.388Z,3.92
2023-07-15T06:20:51.134Z,3.90
2023-07-15T06:21:54.032Z,4.07
2023-07-15T06:22:56.598Z,3.97
2023-07-15T06:23:58.918Z,3.72
2023-07-15T06:25:01.192Z,3.75
2023-07-15T06:26:03.715Z,3.67
2023-07-15T06:27:06.863Z,3.55
2023-07-15T06:28:09.611Z,3.45
2023-07-15T06:29:12.018Z,3.13
2023-07-15T06:30:14.505Z,3.40
2023-07-15T06:31:17.020Z,3.40
2023-07-15T06:32:19.673Z,3.45
2023-07-15T06:33:22.023Z,3.70
2023-07-15T06:34:24.543Z,2.92
2023-07-15T06:35:26.910Z,3.55
2023-07-15T06:36:29.268Z,2.80
2023-07-15T06:37:31.735Z,2.95
2023-07-15T06:38:34.017Z,3.03
2023-07-15T06:39:36.358Z,2.67
2023-07-15T06:40:38.720Z,2.80
2023-07-15T06:41:41.004Z,2.70
2023-07-15T06:42:49.870Z,2.80
2023-07-15T06:43:52.190Z,2.67
2023-07-15T06:44:54.581Z,2.08
2023-07-15T06:45:57.022Z,2.47
2023-07-15T06:46:59.385Z,2.60
2023-07-15T06:48:02.021Z,2.70
2023-07-15T06:49:04.413Z,2.30
2023-07-15T06:50:07.562Z,2.47
2023-07-15T06:51:11.621Z,2.30
2023-07-15T06:52:14.070Z,2.55
2023-07-15T06:53:16.512Z,2.53
2023-07-15T06:54:18.864Z,2.58
2023-07-15T06:55:22.251Z,2.60
2023-07-15T06:56:24.705Z,2.45
2023-07-15T06:57:29.578Z,2.20
2023-07-15T06:58:31.948Z,2.65
2023-07-15T06:59:34.298Z,2.30
2023-07-15T07:00:37.047Z,2.70
2023-07-15T07:01:39.437Z,2.70
2023-07-15T07:02:41.830Z,2.42
2023-07-15T07:03:46.260Z,2.80
2023-07-15T07:04:48.823Z,2.55
2023-07-15T07:05:51.100Z,2.50
2023-07-15T07:06:53.391Z,2.53
2023-07-15T07:07:56.126Z,2.70
2023-07-15T07:08:58.582Z,2.60
2023-07-15T07:10:00.900Z,2.42
2023-07-15T07:11:03.704Z,2.38
2023-07-15T07:12:06.345Z,2.38
2023-07-15T07:13:08.610Z,1.98
2023-07-15T07:14:10.962Z,2.05
2023-07-15T07:15:13.720Z,2.45
2023-07-15T07:16:18.223Z,2.08
2023-07-15T07:17:21.326Z,2.08
2023-07-15T07:18:23.803Z,1.98
2023-07-15T07:19:26.448Z,2.50
2023-07-15T07:20:28.778Z,1.83
2023-07-15T07:21:31.188Z,1.70
2023-07-15T07:22:33.540Z,2.00
2023-07-15T07:23:35.898Z,1.67
2023-07-15T07:24:38.179Z,1.70
2023-07-15T07:25:43.426Z,2.00
2023-07-15T07:26:45.814Z,2.03
2023-07-15T07:27:48.217Z,1.50
2023-07-15T07:28:50.611Z,1.73
2023-07-15T07:29:53.814Z,1.80
2023-07-15T07:30:56.330Z,1.90
2023-07-15T07:31:58.824Z,1.73
2023-07-15T07:33:01.250Z,1.85
2023-07-15T07:34:03.744Z,2.15
2023-07-15T07:35:06.745Z,1.38
2023-07-15T07:36:09.143Z,1.30
2023-07-15T07:37:11.582Z,1.38
2023-07-15T07:38:14.213Z,1.35
2023-07-15T07:39:16.748Z,1.23
2023-07-15T07:40:19.101Z,0.98
2023-07-15T07:41:21.477Z,1.17
2023-07-15T07:42:23.785Z,1.20
2023-07-15T07:43:27.009Z,1.27
2023-07-15T07:44:29.327Z,1.23
2023-07-15T07:45:31.630Z,1.13
2023-07-15T07:46:33.984Z,1.25
2023-07-15T07:47:36.271Z,1.40
2023-07-15T07:48:39.501Z,1.25
2023-07-15T07:49:41.858Z,1.23
2023-07-15T07:50:46.540Z,1.40
2023-07-15T07:51:48.952Z,1.40
2023-07-15T07:52:51.196Z,1.00
2023-07-15T07:53:53.621Z,1.05
2023-07-15T07:54:56.221Z,1.45
2023-07-15T07:55:59.257Z,1.45
2023-07-15T07:57:01.855Z,1.15
2023-07-15T07:58:04.150Z,1.50
2023-07-15T07:59:06.532Z,1.23
2023-07-15T08:00:09.280Z,1.20
2023-07-15T08:01:13.197Z,1.30
2023-07-15T08:02:16.540Z,1.27
2023-07-15T08:03:19.613Z,1.10
2023-07-15T08:04:22.265Z,1.23
2023-07-15T08:05:24.691Z,1.40
2023-07-15T08:06:27.028Z,1.30
2023-07-15T08:07:29.229Z,1.58
2023-07-15T08:08:31.660Z,1.25
2023-07-15T08:09:33.989Z,1.10
2023-07-15T08:10:36.241Z,1.30
2023-07-15T08:11:39.189Z,1.35
2023-07-15T08:12:41.594Z,1.50
2023-07-15T08:13:44.336Z,1.23
2023-07-15T08:14:46.665Z,1.20
2023-07-15T08:15:49.014Z,1.20
2023-07-15T08:16:52.149Z,1.30
2023-07-15T08:17:54.405Z,3.88
2023-07-15T08:18:57.508Z,1.05
2023-07-15T08:19:59.844Z,1.48
2023-07-15T08:21:02.098Z,1.50
2023-07-15T08:22:04.537Z,1.40
2023-07-15T08:23:07.013Z,0.90
2023-07-15T08:24:09.612Z,1.10
2023-07-15T08:25:12.146Z,1.20
2023-07-15T08:26:14.684Z,1.17
2023-07-15T08:27:17.070Z,1.20
2023-07-15T08:28:19.402Z,1.35
2023-07-15T08:29:21.966Z,1.20
2023-07-15T08:30:24.537Z,1.25
2023-07-15T08:31:27.102Z,0.85
2023-07-15T08:32:29.825Z,1.15
2023-07-15T08:33:32.276Z,1.35
2023-07-15T08:34:34.799Z,1.27
2023-07-15T08:35:37.383Z,1.10
2023-07-15T08:36:39.754Z,1.33
2023-07-15T08:37:43.251Z,1.33
2023-07-15T08:38:45.687Z,1.10
2023-07-15T08:39:48.177Z,1.13
2023-07-15T08:40:52.273Z,1.27
2023-07-15T08:41:54.970Z,1.23
2023-07-15T08:42:57.564Z,1.35
2023-07-15T08:44:00.090Z,1.17
2023-07-15T08:45:02.695Z,1.00
2023-07-15T08:46:26.276Z,1.40
2023-07-15T08:47:28.783Z,1.10
2023-07-15T08:48:31.331Z,1.08
2023-07-15T08:49:35.823Z,1.50
2023-07-15T08:50:38.253Z,1.17
2023-07-15T08:51:40.683Z,1.30
2023-07-15T08:52:46.788Z,1.20
2023-07-15T08:53:49.430Z,1.48
2023-07-15T08:54:53.216Z,1.08
2023-07-15T08:55:59.075Z,1.10
2023-07-15T08:57:02.064Z,1.20
2023-07-15T08:58:04.376Z,1.27
2023-07-15T08:59:07.692Z,0.90
2023-07-15T09:00:11.685Z,1.08
2023-07-15T09:01:14.178Z,1.05
2023-07-15T09:02:17.091Z,1.10
2023-07-15T09:03:20.956Z,1.10
2023-07-15T09:04:23.403Z,1.10
2023-07-15T09:05:25.934Z,1.20
2023-07-15T09:06:29.539Z,1.10
2023-07-15T09:07:31.844Z,1.23
2023-07-15T09:08:35.324Z,1.15
2023-07-15T09:09:39.344Z,1.10
2023-07-15T09:10:59.295Z,1.17
2023-07-15T09:12:05.795Z,1.10
2023-07-15T09:13:08.301Z,1.13
2023-07-15T09:14:22.256Z,1.42
2023-07-15T09:15:25.952Z,1.50
2023-07-15T09:16:32.023Z,1.10
2023-07-15T09:17:34.370Z,1.30
2023-07-15T09:18:41.398Z,1.58
2023-07-15T09:19:46.128Z,1.15
2023-07-15T09:20:49.319Z,1.17
2023-07-15T09:21:54.032Z,1.17
2023-07-15T09:23:00.667Z,1.10
2023-07-15T09:24:03.728Z,1.15
2023-07-15T09:25:06.317Z,1.30
2023-07-15T09:26:09.786Z,1.27
2023-07-15T09:27:12.545Z,1.42
2023-07-15T09:28:15.156Z,1.35
2023-07-15T09:29:20.920Z,1.20
2023-07-15T09:30:23.852Z,1.77
2023-07-15T09:31:27.030Z,1.40
2023-07-15T09:32:32.975Z,1.10
2023-07-15T09:33:36.596Z,1.15
2023-07-15T09:34:42.408Z,1.30
2023-07-15T09:35:44.925Z,1.30
2023-07-15T09:36:47.762Z,1.30
2023-07-15T09:37:50.412Z,1.65
2023-07-15T09:38:52.828Z,1.00
2023-07-15T09:40:00.795Z,1.40
2023-07-15T09:41:03.690Z,1.27
2023-07-15T09:42:08.401Z,1.70
2023-07-15T09:43:10.694Z,1.30
2023-07-15T09:44:12.887Z,1.75
2023-07-15T09:45:31.978Z,1.42
2023-07-15T09:46:34.556Z,1.30
2023-07-15T09:47:36.928Z,1.40
2023-07-15T09:48:39.249Z,1.38
2023-07-15T09:49:41.613Z,1.63
2023-07-15T09:50:44.450Z,1.60
2023-07-15T09:51:46.802Z,1.98
2023-07-15T09:52:49.251Z,1.50
2023-07-15T09:53:53.348Z,1.20
2023-07-15T09:54:55.833Z,1.50
2023-07-15T09:55:58.201Z,1.48
2023-07-15T09:57:14.802Z,1.40
2023-07-15T09:58:23.624Z,1.40
2023-07-15T09:59:29.485Z,1.50
2023-07-15T10:00:36.141Z,1.70
2023-07-15T10:01:46.277Z,1.35
2023-07-15T10:02:55.297Z,1.50
2023-07-15T10:04:06.663Z,1.60
2023-07-15T10:05:14.773Z,1.67
2023-07-15T10:06:17.328Z,1.50
2023-07-15T10:07:20.432Z,1.33
2023-07-15T10:08:23.377Z,1.25
2023-07-15T10:09:26.083Z,1.50
2023-07-15T10:10:28.618Z,1.27
2023-07-15T10:11:31.270Z,1.17
2023-07-15T10:12:34.747Z,1.23
2023-07-15T10:13:37.320Z,1.52
2023-07-15T10:14:40.170Z,1.85
2023-07-15T10:15:43.131Z,1.20
2023-07-15T10:16:45.619Z,1.30
2023-07-15T10:17:48.328Z,1.30
2023-07-15T10:18:50.660Z,1.40
2023-07-15T10:19:54.375Z,1.50
2023-07-15T10:20:57.967Z,1.33
2023-07-15T10:22:00.441Z,1.40
2023-07-15T10:23:03.630Z,1.20
2023-07-15T10:24:18.107Z,1.40
2023-07-15T10:25:21.198Z,1.20
2023-07-15T10:26:23.733Z,1.30
2023-07-15T10:27:29.680Z,1.40
2023-07-15T10:28:42.636Z,1.42
2023-07-15T10:29:49.780Z,1.20
2023-07-15T10:31:16.957Z,1.30
2023-07-15T10:32:20.915Z,1.20
2023-07-15T10:33:26.325Z,1.02
2023-07-15T10:34:43.092Z,1.20
2023-07-15T10:35:49.698Z,1.70
2023-07-15T10:36:51.903Z,1.33
2023-07-15T10:37:55.139Z,1.17
2023-07-15T10:39:17.662Z,1.25
2023-07-15T10:40:47.871Z,1.40
2023-07-15T10:41:54.887Z,1.10
2023-07-15T10:43:09.170Z,1.30
2023-07-15T10:44:21.725Z,1.15
2023-07-15T10:45:42.900Z,1.30
2023-07-15T10:47:06.137Z,1.40
2023-07-15T10:48:09.690Z,1.60
2023-07-15T10:49:12.173Z,1.58
2023-07-15T10:50:14.505Z,1.10
2023-07-15T10:51:17.595Z,1.20
2023-07-15T10:52:21.335Z,1.45
2023-07-15T10:53:27.352Z,1.20
2023-07-15T10:54:31.318Z,1.95
2023-07-15T10:55:33.679Z,1.23
2023-07-15T10:56:36.191Z,1.10
2023-07-15T10:57:52.930Z,1.50
2023-07-15T10:58:59.032Z,1.20
2023-07-15T11:00:09.456Z,1.30
2023-07-15T11:01:13.903Z,1.08
2023-07-15T11:02:16.354Z,1.25
2023-07-15T11:03:20.663Z,1.40
2023-07-15T11:04:23.139Z,1.25
2023-07-15T11:05:25.746Z,1.25
2023-07-15T11:06:28.557Z,1.15
2023-07-15T11:07:34.215Z,1.23
2023-07-15T11:08:37.356Z,1.10
2023-07-15T11:09:42.689Z,1.17
2023-07-15T11:10:45.094Z,1.33
2023-07-15T11:11:47.850Z,1.13
2023-07-15T11:12:50.112Z,1.30
2023-07-15T11:13:52.556Z,1.20
2023-07-15T11:14:54.956Z,1.40
2023-07-15T11:15:58.447Z,1.40
2023-07-15T11:17:02.769Z,1.20
2023-07-15T11:18:05.170Z,1.13
2023-07-15T11:19:07.702Z,1.20
2023-07-15T11:20:13.694Z,1.30
2023-07-15T11:21:16.131Z,1.33
2023-07-15T11:22:19.011Z,1.45
2023-07-15T11:23:21.599Z,1.10
2023-07-15T11:24:25.386Z,1.50
2023-07-15T11:25:30.302Z,1.58
2023-07-15T11:26:32.665Z,1.60
2023-07-15T11:27:34.952Z,1.17
2023-07-15T11:28:48.299Z,1.60
2023-07-15T11:30:00.812Z,1.60
2023-07-15T11:31:03.238Z,1.35
2023-07-15T11:32:07.907Z,1.58
2023-07-15T11:33:11.199Z,1.10
2023-07-15T11:34:13.704Z,1.63
2023-07-15T11:35:16.465Z,1.20
2023-07-15T11:36:18.728Z,1.30
2023-07-15T11:37:21.190Z,1.17
2023-07-15T11:38:31.286Z,1.45
2023-07-15T11:39:34.534Z,1.70
2023-07-15T11:40:37.474Z,1.48
2023-07-15T11:41:40.324Z,1.65
2023-07-15T11:42:42.840Z,1.40
2023-07-15T11:43:45.286Z,1.35
2023-07-15T11:44:48.222Z,1.63
2023-07-15T11:45:50.754Z,1.40
2023-07-15T11:46:58.215Z,1.52
2023-07-15T11:48:00.572Z,1.42
2023-07-15T11:49:03.550Z,1.45
2023-07-15T11:50:06.629Z,1.58
2023-07-15T11:51:10.367Z,1.90
2023-07-15T11:52:21.132Z,1.85
2023-07-15T11:53:34.303Z,1.80
2023-07-15T11:54:37.884Z,1.42
2023-07-15T11:55:40.310Z,1.40
2023-07-15T11:56:43.548Z,1.75
2023-07-15T11:57:46.844Z,1.25
2023-07-15T11:58:54.636Z,1.92
2023-07-15T11:59:57.045Z,1.63
2023-07-15T12:00:59.555Z,1.70
2023-07-15T12:02:05.272Z,1.52
2023-07-15T12:03:09.511Z,1.30
2023-07-15T12:04:15.645Z,1.67
2023-07-15T12:05:18.126Z,1.50
2023-07-15T12:06:25.051Z,1.92
2023-07-15T12:07:27.635Z,1.13
2023-07-15T12:08:30.029Z,1.58
2023-07-15T12:09:33.103Z,1.58
2023-07-15T12:10:50.376Z,1.80
2023-07-15T12:11:52.774Z,1.42
2023-07-15T12:12:55.308Z,1.52
2023-07-15T12:13:58.173Z,1.52
2023-07-15T12:15:00.767Z,1.92
2023-07-15T12:16:03.167Z,1.80
2023-07-15T12:17:06.296Z,1.40
2023-07-15T12:18:08.625Z,1.70
2023-07-15T12:19:13.274Z,1.55
2023-07-15T12:20:15.854Z,1.80
2023-07-15T12:21:18.223Z,1.60
2023-07-15T12:22:20.705Z,1.50
2023-07-15T12:23:23.052Z,1.73
2023-07-15T12:24:25.356Z,1.58
2023-07-15T12:25:28.012Z,1.50
2023-07-15T12:26:30.469Z,1.40
2023-07-15T12:27:33.988Z,1.80
2023-07-15T12:28:36.423Z,1.70
2023-07-15T12:29:38.692Z,1.92
2023-07-15T12:30:40.987Z,1.42
2023-07-15T12:31:43.380Z,1.63
2023-07-15T12:32:45.805Z,1.50
2023-07-15T12:33:48.495Z,1.92
2023-07-15T12:34:50.824Z,2.03
2023-07-15T12:35:53.055Z,1.85
2023-07-15T12:36:57.681Z,1.23
2023-07-15T12:37:59.992Z,1.30
2023-07-15T12:39:02.321Z,1.70
2023-07-15T12:40:04.922Z,1.65
2023-07-15T12:41:08.190Z,1.67
2023-07-15T12:42:10.745Z,1.30
2023-07-15T12:43:12.913Z,1.58
2023-07-15T12:44:15.387Z,1.38
2023-07-15T12:45:17.865Z,1.60
2023-07-15T12:46:20.386Z,1.80
2023-07-15T12:47:23.105Z,1.73
2023-07-15T12:48:25.522Z,1.60
2023-07-15T12:49:28.408Z,1.45
2023-07-15T12:50:31.074Z,1.55
2023-07-15T12:51:33.405Z,1.70
2023-07-15T12:52:35.824Z,1.50
2023-07-15T12:53:38.724Z,1.52
2023-07-15T12:54:41.353Z,1.50
2023-07-15T12:55:44.612Z,1.80
2023-07-15T12:56:46.944Z,1.67
2023-07-15T12:57:50.502Z,1.63
2023-07-15T12:58:52.797Z,1.58
2023-07-15T12:59:55.096Z,1.67
2023-07-15T13:00:58.738Z,1.42
2023-07-15T13:02:01.661Z,1.33
2023-07-15T13:03:05.123Z,1.75
2023-07-15T13:04:07.842Z,1.38
2023-07-15T13:05:10.447Z,1.50
2023-07-15T13:06:12.949Z,1.65
2023-07-15T13:07:15.394Z,1.45
2023-07-15T13:08:18.008Z,1.77
2023-07-15T13:09:20.206Z,1.63
2023-07-15T13:10:23.243Z,1.58
2023-07-15T13:11:25.585Z,2.00
2023-07-15T13:12:27.989Z,1.65
2023-07-15T13:13:30.412Z,1.67
2023-07-15T13:14:32.722Z,1.48
2023-07-15T13:15:35.131Z,2.03
2023-07-15T13:16:37.421Z,1.42
2023-07-15T13:17:41.553Z,1.75
2023-07-15T13:18:43.921Z,1.48
2023-07-15T13:19:46.274Z,1.60
2023-07-15T13:20:48.682Z,2.00
2023-07-15T13:21:51.049Z,1.60
2023-07-15T13:22:53.416Z,1.77
2023-07-15T13:23:55.836Z,1.70
2023-07-15T13:24:58.288Z,1.50
2023-07-15T13:26:00.905Z,1.90
2023-07-15T13:27:03.359Z,2.10
2023-07-15T13:28:06.118Z,1.88
2023-07-15T13:29:08.326Z,1.80
2023-07-15T13:30:11.834Z,1.55
2023-07-15T13:31:14.580Z,1.90
2023-07-15T13:32:17.069Z,2.17
2023-07-15T13:33:19.317Z,1.77
2023-07-15T13:34:21.614Z,2.08
2023-07-15T13:35:23.902Z,1.63
2023-07-15T13:36:26.284Z,1.88
2023-07-15T13:37:28.647Z,1.90
2023-07-15T13:38:30.926Z,1.92
2023-07-15T13:39:43.328Z,1.67
2023-07-15T13:40:45.526Z,2.00
2023-07-15T13:41:47.945Z,2.08
2023-07-15T13:42:53.202Z,1.63
2023-07-15T13:43:55.698Z,1.70
2023-07-15T13:44:58.106Z,1.70
2023-07-15T13:46:01.097Z,1.83
2023-07-15T13:47:04.339Z,1.70
2023-07-15T13:48:06.781Z,1.70
2023-07-15T13:49:09.100Z,1.90
2023-07-15T13:50:11.469Z,1.80
2023-07-15T13:51:14.058Z,2.00
2023-07-15T13:52:16.544Z,1.80
2023-07-15T13:53:18.929Z,1.88
2023-07-15T13:54:21.201Z,2.15
2023-07-15T13:55:23.506Z,2.15
2023-07-15T13:56:25.875Z,1.70
2023-07-15T13:57:28.250Z,1.58
2023-07-15T13:58:30.574Z,1.52
2023-07-15T13:59:32.862Z,2.13
2023-07-15T14:00:35.241Z,1.85
2023-07-15T14:01:37.516Z,1.50
2023-07-15T14:02:40.093Z,1.60
2023-07-15T14:03:42.511Z,1.65
2023-07-15T14:04:44.793Z,1.40
2023-07-15T14:05:47.068Z,1.92
2023-07-15T14:06:49.628Z,1.42